GIA222 WIII-WAHQ
Flight info
| Callsign | GIA222 |
|---|---|
| Flight time | N/A |
| Altitude | 35000 |
| Route | CA2D/25R CA T3 ANY W17N PURWO |
| Aircraft | B738/M-SDE2E3FGHIRWXY/LB1 |
Departure
| Time | N/A |
|---|---|
| Airport | Soekarno-Hatta International Airport (WIII) |
Arrival
| Time | 2026-05-08 00:26 |
|---|---|
| Airport | Adisoemarmo International Airport (WAHQ) |
| Time | Latitude | Longitude | Altitude | Speed | Heading |
|---|---|---|---|---|---|
| 2026-05-08 00:18 | -7.50778 | 110.80280 | 5737 ft | 261 kts | 94° |
| 2026-05-08 00:19 | -7.51019 | 110.82095 | 5401 ft | 260 kts | 101° |
| 2026-05-08 00:19 | -7.51355 | 110.83882 | 5091 ft | 259 kts | 101° |
| 2026-05-08 00:19 | -7.51679 | 110.85663 | 4774 ft | 257 kts | 101° |
| 2026-05-08 00:19 | -7.51978 | 110.87442 | 4458 ft | 257 kts | 100° |
| 2026-05-08 00:20 | -7.52258 | 110.89216 | 4151 ft | 255 kts | 99° |
| 2026-05-08 00:20 | -7.52527 | 110.90945 | 3973 ft | 248 kts | 99° |
| 2026-05-08 00:20 | -7.52785 | 110.92637 | 3848 ft | 240 kts | 99° |
| 2026-05-08 00:20 | -7.52766 | 110.94277 | 3781 ft | 234 kts | 71° |
| 2026-05-08 00:21 | -7.51805 | 110.95568 | 3770 ft | 233 kts | 36° |
| 2026-05-08 00:21 | -7.50290 | 110.96054 | 3660 ft | 230 kts | 359° |
| 2026-05-08 00:21 | -7.48815 | 110.95570 | 3558 ft | 223 kts | 323° |
| 2026-05-08 00:21 | -7.47904 | 110.94346 | 3366 ft | 219 kts | 285° |
| 2026-05-08 00:22 | -7.47887 | 110.92852 | 3190 ft | 211 kts | 258° |
| 2026-05-08 00:22 | -7.48150 | 110.91418 | 2977 ft | 205 kts | 257° |
| 2026-05-08 00:22 | -7.48449 | 110.90025 | 2757 ft | 201 kts | 255° |
| 2026-05-08 00:22 | -7.48752 | 110.88662 | 2563 ft | 198 kts | 256° |
| 2026-05-08 00:23 | -7.49046 | 110.87324 | 2306 ft | 192 kts | 256° |
| 2026-05-08 00:23 | -7.49329 | 110.86036 | 2055 ft | 184 kts | 255° |
| 2026-05-08 00:23 | -7.49597 | 110.84822 | 1920 ft | 169 kts | 255° |
| 2026-05-08 00:23 | -7.49841 | 110.83714 | 1782 ft | 153 kts | 255° |
| 2026-05-08 00:24 | -7.50059 | 110.82725 | 1580 ft | 137 kts | 255° |
| 2026-05-08 00:24 | -7.50263 | 110.81813 | 1394 ft | 131 kts | 255° |
| 2026-05-08 00:24 | -7.50461 | 110.80908 | 1227 ft | 134 kts | 255° |
| 2026-05-08 00:24 | -7.50663 | 110.79992 | 1056 ft | 134 kts | 255° |
| 2026-05-08 00:25 | -7.50860 | 110.79097 | 869 ft | 132 kts | 255° |
| 2026-05-08 00:25 | -7.51064 | 110.78188 | 707 ft | 131 kts | 256° |
| 2026-05-08 00:25 | -7.51259 | 110.77294 | 573 ft | 129 kts | 257° |
| 2026-05-08 00:25 | -7.51451 | 110.76408 | 450 ft | 125 kts | 258° |
| 2026-05-08 00:26 | -7.51617 | 110.75653 | 432 ft | 98 kts | 254° |
| 2026-05-08 00:26 | -7.51708 | 110.75255 | 431 ft | 74 kts | 258° |
| 2026-05-08 00:26 | -7.51811 | 110.74795 | 428 ft | 27 kts | 257° |
| 2026-05-08 00:26 | -7.51838 | 110.74672 | 419 ft | 16 kts | 257° |
| 2026-05-08 00:27 | -7.51874 | 110.74619 | 422 ft | 9 kts | 226° |
| 2026-05-08 00:27 | -7.51870 | 110.74569 | 427 ft | 7 kts | 312° |
| 2026-05-08 00:27 | -7.51825 | 110.74560 | 427 ft | 7 kts | 18° |
| 2026-05-08 00:27 | -7.51802 | 110.74582 | 419 ft | 7 kts | 60° |
| 2026-05-08 00:28 | -7.51806 | 110.74626 | 418 ft | 7 kts | 124° |
| 2026-05-08 00:28 | -7.51827 | 110.74666 | 421 ft | 7 kts | 99° |
| 2026-05-08 00:28 | -7.51826 | 110.74713 | 428 ft | 7 kts | 82° |
| 2026-05-08 00:28 | -7.51816 | 110.74768 | 428 ft | 9 kts | 80° |
| 2026-05-08 00:29 | -7.51804 | 110.74837 | 429 ft | 11 kts | 78° |
| 2026-05-08 00:29 | -7.51781 | 110.74916 | 429 ft | 12 kts | 60° |
| 2026-05-08 00:29 | -7.51708 | 110.74947 | 422 ft | 13 kts | 347° |
| 2026-05-08 00:29 | -7.51618 | 110.74926 | 430 ft | 11 kts | 347° |
| 2026-05-08 00:30 | -7.51545 | 110.74911 | 430 ft | 11 kts | 359° |
| 2026-05-08 00:30 | -7.51505 | 110.74967 | 430 ft | 11 kts | 76° |
| 2026-05-08 00:30 | -7.51493 | 110.75016 | 424 ft | 4 kts | 68° |
| 2026-05-08 00:30 | -7.51461 | 110.75022 | 420 ft | 6 kts | 349° |
| 2026-05-08 00:31 | -7.51417 | 110.75011 | 424 ft | 6 kts | 347° |
| 2026-05-08 00:31 | -7.51405 | 110.75008 | 430 ft | 0 kts | 347° |
| 2026-05-08 00:58 | -7.51420 | 110.75011 | 430 ft | 0 kts | 347° |